Time;durP1;ratioP1;P1;durP2;ratioP2;P2;SDS_P1;SDS_P2;PMS_P1;PMS_P2;Temp;Humidity;BMP_temperature;BMP_pressure;BME280_temperature;BME280_humidity;BME280_pressure;Samples;Min_cycle;Max_cycle;Signal;HPM_P1;HPM_P2
2021/05/13 00:01:56;;;;;;;;;;;8.10;97.90;;;;;;5069941;28;19923;-70
2021/05/13 00:04:21;;;;;;;;;;;8.20;97.50;;;;;;5067451;28;19927;-71
2021/05/13 00:06:47;;;;;;;;;;;8.20;97.50;;;;;;5065470;28;20019;-70
2021/05/13 00:09:13;;;;;;;;;;;8.10;97.50;;;;;;5068301;28;20007;-71
2021/05/13 00:11:42;;;;;;;;;;;8.10;97.70;;;;;;5073503;28;20005;-71
2021/05/13 00:14:07;;;;;;;;;;;8.10;97.70;;;;;;5071776;28;20016;-70
2021/05/13 00:16:35;;;;;;;;;;;8.10;97.80;;;;;;5066617;28;20299;-71
2021/05/13 00:19:04;;;;;;;;;;;8.10;97.80;;;;;;5064099;28;20111;-70
2021/05/13 00:21:29;;;;;;;;;;;8.20;97.70;;;;;;5068422;28;19952;-71
2021/05/13 00:23:55;;;;;;;;;;;8.20;97.60;;;;;;5054419;28;19959;-71
2021/05/13 00:29:04;;;;;;;;;;;8.20;97.50;;;;;;5063679;28;19920;-71
2021/05/13 00:31:29;;;;;;;;;;;8.30;97.40;;;;;;5062922;28;19913;-70
2021/05/13 00:33:58;;;;;;;;;;;8.20;97.50;;;;;;5065259;28;20187;-70
2021/05/13 00:36:27;;;;;;;;;;;8.20;97.50;;;;;;5062934;28;19916;-70
2021/05/13 00:38:53;;;;;;;;;;;8.20;97.50;;;;;;5065506;28;19921;-71
2021/05/13 00:41:18;;;;;;;;;;;8.10;97.70;;;;;;5063590;28;19955;-70
2021/05/13 00:43:44;;;;;;;;;;;8.10;97.60;;;;;;5063013;28;19912;-69
2021/05/13 00:46:09;;;;;;;;;;;8.00;97.60;;;;;;5065240;28;20054;-69
2021/05/13 00:48:40;;;;;;;;;;;7.90;97.50;;;;;;5066554;28;20315;-70
2021/05/13 00:51:06;;;;;;;;;;;7.90;97.50;;;;;;5066530;28;19974;-70
2021/05/13 00:53:32;;;;;;;;;;;7.80;97.50;;;;;;5067249;28;19920;-71
2021/05/13 00:55:58;;;;;;;;;;;7.80;97.50;;;;;;5063890;28;19916;-71
2021/05/13 00:58:26;;;;;;;;;;;7.90;97.70;;;;;;5065423;28;19913;-71
2021/05/13 01:01:04;;;;;;;;;;;7.90;97.80;;;;;;5065767;28;19927;-70
2021/05/13 01:03:32;;;;;;;;;;;7.90;97.70;;;;;;5064788;28;19931;-72
2021/05/13 01:05:58;;;;;;;;;;;7.90;97.80;;;;;;5066182;28;19924;-71
2021/05/13 01:08:23;;;;;;;;;;;8.00;97.80;;;;;;5064455;28;19920;-71
2021/05/13 01:10:49;;;;;;;;;;;8.00;97.70;;;;;;5061081;28;20396;-70
2021/05/13 01:13:19;;;;;;;;;;;8.00;97.80;;;;;;5064808;28;19922;-70
2021/05/13 01:15:54;;;;;;;;;;;8.00;97.90;;;;;;5074845;28;19960;-71
2021/05/13 01:18:24;;;;;;;;;;;8.00;97.60;;;;;;5045054;28;20248;-70
2021/05/13 01:20:51;;;;;;;;;;;7.90;97.60;;;;;;5060506;28;20035;-70
2021/05/13 01:23:17;;;;;;;;;;;7.90;97.50;;;;;;5058940;28;19967;-68
2021/05/13 01:25:45;;;;;;;;;;;7.90;97.50;;;;;;5058768;28;19981;-68
2021/05/13 01:28:13;;;;;;;;;;;7.90;97.70;;;;;;5063216;28;19921;-69
2021/05/13 01:30:38;;;;;;;;;;;7.90;97.70;;;;;;5061033;28;19917;-70
2021/05/13 01:33:04;;;;;;;;;;;7.90;97.60;;;;;;5063545;28;19943;-69
2021/05/13 01:35:30;;;;;;;;;;;7.90;97.80;;;;;;5062965;28;19931;-70
2021/05/13 01:38:03;;;;;;;;;;;7.90;97.60;;;;;;5057791;28;19921;-71
2021/05/13 01:40:28;;;;;;;;;;;8.00;98.00;;;;;;5065098;28;20347;-70
2021/05/13 01:42:54;;;;;;;;;;;8.00;97.90;;;;;;5065483;28;19921;-72
2021/05/13 01:45:19;;;;;;;;;;;8.00;97.90;;;;;;5062470;28;20272;-69
2021/05/13 01:47:45;;;;;;;;;;;8.00;97.80;;;;;;5057407;28;19951;-70
2021/05/13 01:50:10;;;;;;;;;;;8.00;97.60;;;;;;5058561;28;19913;-70
2021/05/13 01:52:36;;;;;;;;;;;7.90;97.80;;;;;;5060249;28;19961;-70
2021/05/13 01:55:02;;;;;;;;;;;7.90;97.70;;;;;;5060324;28;19921;-70
2021/05/13 01:57:27;;;;;;;;;;;7.90;97.80;;;;;;5059607;28;20415;-70
2021/05/13 01:59:53;;;;;;;;;;;7.90;97.90;;;;;;5061674;28;19913;-70
2021/05/13 02:02:21;;;;;;;;;;;7.90;97.90;;;;;;5060752;28;19912;-70
2021/05/13 02:04:46;;;;;;;;;;;7.90;97.80;;;;;;5058427;28;19912;-70
2021/05/13 02:07:12;;;;;;;;;;;7.90;97.80;;;;;;5061756;28;19924;-70
2021/05/13 02:09:38;;;;;;;;;;;7.90;97.90;;;;;;5064514;28;19924;-70
2021/05/13 02:12:04;;;;;;;;;;;7.90;97.90;;;;;;5063554;28;19921;-70
2021/05/13 02:14:30;;;;;;;;;;;7.90;97.80;;;;;;5061423;28;19939;-69
2021/05/13 02:16:55;;;;;;;;;;;7.90;97.70;;;;;;5080352;28;19920;-69
2021/05/13 02:19:21;;;;;;;;;;;7.90;97.70;;;;;;5077956;28;20209;-70
2021/05/13 02:21:46;;;;;;;;;;;7.70;97.60;;;;;;5077087;28;19920;-70
2021/05/13 02:24:12;;;;;;;;;;;7.70;97.80;;;;;;5081968;28;20042;-69
2021/05/13 02:26:37;;;;;;;;;;;7.60;97.60;;;;;;5083796;28;19916;-70
2021/05/13 02:29:03;;;;;;;;;;;7.60;97.80;;;;;;5078301;28;19912;-69
2021/05/13 02:31:29;;;;;;;;;;;7.40;97.60;;;;;;5080852;28;19966;-70
2021/05/13 02:33:54;;;;;;;;;;;7.30;97.70;;;;;;5084563;28;19923;-70
2021/05/13 02:36:20;;;;;;;;;;;7.30;97.60;;;;;;5083597;28;19916;-70
2021/05/13 02:38:45;;;;;;;;;;;7.20;97.60;;;;;;5078029;28;20297;-70
2021/05/13 02:41:11;;;;;;;;;;;7.10;97.60;;;;;;5079597;28;20220;-70
2021/05/13 02:43:39;;;;;;;;;;;7.10;97.50;;;;;;5078070;28;19920;-70
2021/05/13 02:46:05;;;;;;;;;;;7.10;97.30;;;;;;5086766;28;20255;-70
2021/05/13 02:48:31;;;;;;;;;;;7.00;97.40;;;;;;5074424;28;19913;-70
2021/05/13 02:50:56;;;;;;;;;;;7.00;97.40;;;;;;5080020;28;19912;-70
2021/05/13 02:53:22;;;;;;;;;;;7.00;97.60;;;;;;5083428;28;20372;-70
2021/05/13 02:55:47;;;;;;;;;;;7.00;97.70;;;;;;5079216;28;19955;-70
2021/05/13 02:58:13;;;;;;;;;;;6.90;97.70;;;;;;5079923;28;19920;-70
2021/05/13 03:00:51;;;;;;;;;;;6.80;97.70;;;;;;5082296;28;19920;-70
2021/05/13 03:03:17;;;;;;;;;;;6.80;97.50;;;;;;5075092;28;20241;-70
2021/05/13 03:05:43;;;;;;;;;;;6.80;97.70;;;;;;5080975;28;19924;-70
2021/05/13 03:08:10;;;;;;;;;;;6.70;97.70;;;;;;5077349;28;19923;-70
2021/05/13 03:10:47;;;;;;;;;;;6.70;97.70;;;;;;5081449;28;19916;-71
2021/05/13 03:13:20;;;;;;;;;;;6.70;97.70;;;;;;5079479;28;19913;-70
2021/05/13 03:15:45;;;;;;;;;;;6.70;97.70;;;;;;5066894;28;20043;-70
2021/05/13 03:18:11;;;;;;;;;;;6.60;97.70;;;;;;5059158;28;20015;-71
2021/05/13 03:20:39;;;;;;;;;;;6.60;97.80;;;;;;5064631;28;20268;-70
2021/05/13 03:23:06;;;;;;;;;;;6.60;97.60;;;;;;5063628;28;20016;-71
2021/05/13 03:25:37;;;;;;;;;;;6.50;97.70;;;;;;5061421;28;19948;-69
2021/05/13 03:28:09;;;;;;;;;;;6.50;97.90;;;;;;5059139;28;21621;-71
2021/05/13 03:30:36;;;;;;;;;;;6.50;97.90;;;;;;5059535;28;21727;-70
2021/05/13 03:33:02;;;;;;;;;;;6.50;97.90;;;;;;5063350;28;19956;-70
2021/05/13 03:35:30;;;;;;;;;;;6.60;98.00;;;;;;5059951;28;19963;-70
2021/05/13 03:37:56;;;;;;;;;;;6.60;97.80;;;;;;5057992;28;19950;-69
2021/05/13 03:40:22;;;;;;;;;;;6.60;97.90;;;;;;5060140;28;19920;-69
2021/05/13 03:42:47;;;;;;;;;;;6.50;97.90;;;;;;5064166;28;19981;-70
2021/05/13 03:45:13;;;;;;;;;;;6.40;97.90;;;;;;5057452;28;20007;-69
2021/05/13 03:47:38;;;;;;;;;;;6.40;97.60;;;;;;5070734;28;20236;-69
2021/05/13 03:50:04;;;;;;;;;;;6.50;97.90;;;;;;5075242;28;19919;-70
2021/05/13 03:52:30;;;;;;;;;;;6.40;97.80;;;;;;5074603;28;19966;-70
2021/05/13 03:54:55;;;;;;;;;;;6.40;97.80;;;;;;5066749;28;19916;-71
2021/05/13 03:57:21;;;;;;;;;;;6.40;97.70;;;;;;5061874;28;19919;-70
2021/05/13 03:59:46;;;;;;;;;;;6.40;97.80;;;;;;5040348;28;19921;-70
2021/05/13 04:02:32;;;;;;;;;;;6.40;97.70;;;;;;5058337;28;19913;-70
2021/05/13 04:05:00;;;;;;;;;;;6.50;97.90;;;;;;5063327;28;19912;-70
2021/05/13 04:07:33;;;;;;;;;;;6.50;97.90;;;;;;5060615;28;19924;-70
2021/05/13 04:10:03;;;;;;;;;;;6.60;97.90;;;;;;5059567;28;19920;-71
2021/05/13 04:12:28;;;;;;;;;;;6.60;98.00;;;;;;5057108;28;19912;-70
2021/05/13 04:14:55;;;;;;;;;;;6.60;97.80;;;;;;5057329;28;19932;-70
2021/05/13 04:17:22;;;;;;;;;;;6.70;98.00;;;;;;5059812;28;21819;-70
2021/05/13 04:19:47;;;;;;;;;;;6.70;98.00;;;;;;5064738;28;19912;-71
2021/05/13 04:22:14;;;;;;;;;;;6.70;97.90;;;;;;5057658;28;19920;-70
2021/05/13 04:24:41;;;;;;;;;;;6.60;97.90;;;;;;5066513;28;19916;-69
2021/05/13 04:27:06;;;;;;;;;;;6.70;97.90;;;;;;5065167;28;19952;-69
2021/05/13 04:29:32;;;;;;;;;;;6.70;98.00;;;;;;5041595;28;20265;-70
2021/05/13 04:31:58;;;;;;;;;;;6.80;98.00;;;;;;5060862;28;19935;-70
2021/05/13 04:34:26;;;;;;;;;;;6.90;98.00;;;;;;5062189;28;19946;-70
2021/05/13 04:36:51;;;;;;;;;;;7.00;98.00;;;;;;5060986;28;19919;-71
2021/05/13 04:39:17;;;;;;;;;;;7.00;98.00;;;;;;5061622;28;19921;-71
2021/05/13 04:41:43;;;;;;;;;;;7.00;98.00;;;;;;5061131;28;19921;-71
2021/05/13 04:44:08;;;;;;;;;;;7.10;98.00;;;;;;5064434;28;19920;-70
2021/05/13 04:46:35;;;;;;;;;;;7.20;98.00;;;;;;5040910;28;19931;-70
2021/05/13 04:51:30;;;;;;;;;;;7.40;98.00;;;;;;5064332;28;19912;-70
2021/05/13 04:53:56;;;;;;;;;;;7.40;98.00;;;;;;5064110;28;20313;-70
2021/05/13 04:56:22;;;;;;;;;;;7.50;98.00;;;;;;5064357;28;20011;-70
2021/05/13 04:58:48;;;;;;;;;;;7.60;98.00;;;;;;5061773;28;19924;-71
2021/05/13 05:01:14;;;;;;;;;;;7.60;98.00;;;;;;5067400;28;19912;-70
2021/05/13 05:03:39;;;;;;;;;;;7.60;98.00;;;;;;5063972;28;19942;-71
2021/05/13 05:06:05;;;;;;;;;;;7.60;98.00;;;;;;5063030;28;19977;-71
2021/05/13 05:08:31;;;;;;;;;;;7.50;98.00;;;;;;5058862;28;19912;-70
2021/05/13 05:10:56;;;;;;;;;;;7.50;98.00;;;;;;5059792;28;19928;-70
2021/05/13 05:13:22;;;;;;;;;;;7.50;98.00;;;;;;5067006;28;19951;-70
2021/05/13 05:15:47;;;;;;;;;;;7.50;98.00;;;;;;5061070;28;19932;-70
2021/05/13 05:18:21;;;;;;;;;;;7.50;98.00;;;;;;5059001;28;19927;-69
2021/05/13 05:20:49;;;;;;;;;;;7.50;97.90;;;;;;5058645;28;19912;-71
2021/05/13 05:23:15;;;;;;;;;;;7.60;98.00;;;;;;5065979;28;20265;-70
2021/05/13 05:25:40;;;;;;;;;;;7.70;98.00;;;;;;5074422;28;19999;-69
2021/05/13 05:28:06;;;;;;;;;;;7.80;98.00;;;;;;5058308;28;19921;-70
2021/05/13 05:30:33;;;;;;;;;;;7.90;98.00;;;;;;5064270;28;19928;-69
2021/05/13 05:32:59;;;;;;;;;;;8.00;98.00;;;;;;5043842;28;20403;-70
2021/05/13 05:35:26;;;;;;;;;;;8.20;97.90;;;;;;5063343;28;19943;-70
2021/05/13 05:37:52;;;;;;;;;;;8.40;98.00;;;;;;5060396;28;19924;-71
2021/05/13 05:40:18;;;;;;;;;;;8.40;98.00;;;;;;5057215;28;20346;-70
2021/05/13 05:42:44;;;;;;;;;;;8.60;98.00;;;;;;5059837;28;20058;-70
2021/05/13 05:45:10;;;;;;;;;;;8.90;98.00;;;;;;5057874;28;20035;-70
2021/05/13 05:47:35;;;;;;;;;;;9.10;97.50;;;;;;5060974;28;19925;-71
2021/05/13 05:50:01;;;;;;;;;;;9.30;97.40;;;;;;5061394;28;20222;-70
2021/05/13 05:52:27;;;;;;;;;;;9.40;97.40;;;;;;5058116;28;20328;-70
2021/05/13 05:54:54;;;;;;;;;;;9.60;97.10;;;;;;5058677;28;19913;-71
2021/05/13 05:57:20;;;;;;;;;;;9.70;96.60;;;;;;5058184;28;19942;-69
2021/05/13 05:59:46;;;;;;;;;;;9.80;96.60;;;;;;5060942;28;19999;-70
2021/05/13 06:02:11;;;;;;;;;;;9.90;96.70;;;;;;5057449;28;19925;-69
2021/05/13 06:04:37;;;;;;;;;;;10.20;95.40;;;;;;5060263;28;19979;-71
2021/05/13 06:07:02;;;;;;;;;;;10.40;94.00;;;;;;5061029;28;19929;-70
2021/05/13 06:09:28;;;;;;;;;;;10.60;92.70;;;;;;5061390;28;20206;-70
2021/05/13 06:11:56;;;;;;;;;;;10.80;92.70;;;;;;5056410;28;19921;-70
2021/05/13 06:14:22;;;;;;;;;;;11.00;92.40;;;;;;5065751;28;20324;-70
2021/05/13 06:16:48;;;;;;;;;;;11.10;90.60;;;;;;5077960;28;20003;-70
2021/05/13 06:19:14;;;;;;;;;;;11.10;90.90;;;;;;5079504;28;20004;-70
2021/05/13 06:21:39;;;;;;;;;;;11.30;89.40;;;;;;5081894;28;19920;-71
2021/05/13 06:24:08;;;;;;;;;;;11.30;89.10;;;;;;5090444;28;19962;-69
2021/05/13 06:26:34;;;;;;;;;;;11.40;88.30;;;;;;5086669;28;19965;-70
2021/05/13 06:29:00;;;;;;;;;;;11.40;88.70;;;;;;5091739;28;19916;-71
2021/05/13 06:31:26;;;;;;;;;;;11.30;88.20;;;;;;5067331;28;19955;-70
2021/05/13 06:33:52;;;;;;;;;;;11.30;89.20;;;;;;5083426;28;19916;-69
2021/05/13 06:36:18;;;;;;;;;;;11.30;89.30;;;;;;5065309;28;19912;-68
2021/05/13 06:38:44;;;;;;;;;;;11.40;88.70;;;;;;5064073;28;20536;-69
2021/05/13 06:41:10;;;;;;;;;;;11.40;89.10;;;;;;5075903;28;19919;-68
2021/05/13 06:43:36;;;;;;;;;;;11.50;89.50;;;;;;5079647;28;19917;-70
2021/05/13 06:46:02;;;;;;;;;;;11.50;88.80;;;;;;5081434;28;19930;-70
2021/05/13 06:48:28;;;;;;;;;;;11.50;88.30;;;;;;5077144;28;20007;-71
2021/05/13 06:50:53;;;;;;;;;;;11.60;88.60;;;;;;5083258;28;19918;-69
2021/05/13 06:53:19;;;;;;;;;;;11.60;88.70;;;;;;5084809;28;19915;-71
2021/05/13 06:55:48;;;;;;;;;;;11.70;88.70;;;;;;5082671;28;19920;-70
2021/05/13 06:58:13;;;;;;;;;;;11.80;88.00;;;;;;5082650;28;19920;-70
2021/05/13 07:00:39;;;;;;;;;;;11.70;87.60;;;;;;5081709;28;20828;-70
2021/05/13 07:03:04;;;;;;;;;;;11.70;87.50;;;;;;5076447;28;20006;-72
2021/05/13 07:05:30;;;;;;;;;;;11.90;87.10;;;;;;5082451;28;19917;-69
2021/05/13 07:07:55;;;;;;;;;;;12.00;87.40;;;;;;5058762;28;19917;-69
2021/05/13 07:10:21;;;;;;;;;;;12.20;87.90;;;;;;5062024;28;20564;-71
2021/05/13 07:12:49;;;;;;;;;;;12.20;86.80;;;;;;5083534;28;19927;-70
2021/05/13 07:15:14;;;;;;;;;;;12.20;87.50;;;;;;5075373;28;19929;-70
2021/05/13 07:17:40;;;;;;;;;;;12.30;88.00;;;;;;5037556;28;21142;-71
2021/05/13 07:20:08;;;;;;;;;;;12.40;88.20;;;;;;5057053;28;20221;-71
2021/05/13 07:22:34;;;;;;;;;;;12.50;88.80;;;;;;5060703;28;19924;-71
2021/05/13 07:24:59;;;;;;;;;;;12.60;87.60;;;;;;5050625;28;19989;-71
2021/05/13 07:27:25;;;;;;;;;;;12.60;87.00;;;;;;5058706;28;20561;-70
2021/05/13 07:29:50;;;;;;;;;;;12.90;87.60;;;;;;5079056;28;19916;-70
2021/05/13 07:32:16;;;;;;;;;;;13.00;85.50;;;;;;5071819;28;19920;-70
2021/05/13 07:34:41;;;;;;;;;;;13.20;84.70;;;;;;5058204;28;19920;-70
2021/05/13 07:37:07;;;;;;;;;;;13.40;83.60;;;;;;5056733;28;20221;-70
2021/05/13 07:39:32;;;;;;;;;;;13.90;83.60;;;;;;5056495;28;19913;-70
2021/05/13 07:41:58;;;;;;;;;;;14.60;80.80;;;;;;5055983;28;20332;-71
2021/05/13 07:44:27;;;;;;;;;;;15.50;78.10;;;;;;5057280;28;20006;-71
2021/05/13 07:46:54;;;;;;;;;;;16.00;76.30;;;;;;5060946;28;20019;-72
2021/05/13 07:49:20;;;;;;;;;;;16.20;75.70;;;;;;5059627;28;19929;-69
2021/05/13 07:51:45;;;;;;;;;;;15.90;76.60;;;;;;5060318;28;19994;-71
2021/05/13 07:54:14;;;;;;;;;;;15.60;76.10;;;;;;5063026;28;19972;-71
2021/05/13 07:56:39;;;;;;;;;;;16.20;74.60;;;;;;5061191;28;20309;-72
2021/05/13 07:59:05;;;;;;;;;;;16.20;73.20;;;;;;5041007;28;19920;-70
2021/05/13 08:01:31;;;;;;;;;;;16.30;73.60;;;;;;5064435;28;20007;-71
2021/05/13 08:03:56;;;;;;;;;;;17.30;70.80;;;;;;5066137;28;19923;-71
2021/05/13 08:06:22;;;;;;;;;;;17.40;68.60;;;;;;5065745;28;19916;-71
2021/05/13 08:08:47;;;;;;;;;;;17.80;68.60;;;;;;5063915;28;19920;-71
2021/05/13 08:11:13;;;;;;;;;;;19.20;66.60;;;;;;5058361;28;19995;-71
2021/05/13 08:13:38;;;;;;;;;;;19.50;65.50;;;;;;5063321;28;19912;-71
2021/05/13 08:16:04;;;;;;;;;;;19.20;66.40;;;;;;5060459;28;19924;-71
2021/05/13 08:18:29;;;;;;;;;;;18.80;66.40;;;;;;5062311;28;19966;-71
2021/05/13 08:20:55;;;;;;;;;;;18.50;69.60;;;;;;5064033;28;19978;-70
2021/05/13 08:23:21;;;;;;;;;;;19.70;67.20;;;;;;5062683;28;19912;-71
2021/05/13 08:25:46;;;;;;;;;;;19.50;65.70;;;;;;5068050;28;20012;-70
2021/05/13 08:28:12;;;;;;;;;;;18.20;69.10;;;;;;5063499;28;19916;-71
2021/05/13 08:30:37;;;;;;;;;;;19.20;66.60;;;;;;5062949;28;19924;-71
2021/05/13 08:33:03;;;;;;;;;;;19.90;64.50;;;;;;5057576;28;19966;-69
2021/05/13 08:35:29;;;;;;;;;;;20.70;65.00;;;;;;5073826;28;20332;-69
2021/05/13 08:37:54;;;;;;;;;;;20.80;63.50;;;;;;5072005;28;19919;-69
2021/05/13 08:40:20;;;;;;;;;;;20.90;63.70;;;;;;5079026;28;19916;-71
2021/05/13 08:42:46;;;;;;;;;;;20.80;63.40;;;;;;5078519;28;19920;-70
2021/05/13 08:45:11;;;;;;;;;;;20.80;62.50;;;;;;5078532;28;19913;-70
2021/05/13 08:47:38;;;;;;;;;;;21.00;64.00;;;;;;5076280;28;20007;-70
2021/05/13 08:50:04;;;;;;;;;;;20.20;62.30;;;;;;5077591;28;19916;-71
2021/05/13 08:52:30;;;;;;;;;;;20.00;62.70;;;;;;5078082;28;20206;-70
2021/05/13 08:54:56;;;;;;;;;;;20.20;62.20;;;;;;5076634;28;19923;-70
2021/05/13 08:57:23;;;;;;;;;;;19.70;64.20;;;;;;5083329;28;19925;-70
2021/05/13 08:59:48;;;;;;;;;;;19.40;64.40;;;;;;5076662;28;19912;-71
2021/05/13 09:02:14;;;;;;;;;;;19.80;65.40;;;;;;5074995;28;19916;-70
2021/05/13 09:04:46;;;;;;;;;;;20.10;61.30;;;;;;5078676;28;19932;-70
2021/05/13 09:07:22;;;;;;;;;;;20.20;60.90;;;;;;5076102;28;20531;-70
2021/05/13 09:10:15;;;;;;;;;;;19.90;61.30;;;;;;5075303;28;19920;-70
2021/05/13 09:12:50;;;;;;;;;;;19.00;63.10;;;;;;5071132;28;20316;-70
2021/05/13 09:15:20;;;;;;;;;;;19.60;62.30;;;;;;5067410;28;19966;-70
2021/05/13 09:17:52;;;;;;;;;;;21.00;61.90;;;;;;5076268;28;19977;-70
2021/05/13 09:20:37;;;;;;;;;;;21.70;56.90;;;;;;5071876;28;20062;-69
2021/05/13 09:23:13;;;;;;;;;;;21.50;57.10;;;;;;5072808;28;21324;-70
2021/05/13 09:25:39;;;;;;;;;;;22.20;56.70;;;;;;5077726;28;19959;-70
2021/05/13 09:28:06;;;;;;;;;;;22.90;55.20;;;;;;5080344;28;19913;-70
2021/05/13 09:30:32;;;;;;;;;;;22.30;55.90;;;;;;5077271;28;19951;-70
2021/05/13 09:32:59;;;;;;;;;;;21.90;55.30;;;;;;5074764;28;19962;-69
2021/05/13 09:35:24;;;;;;;;;;;22.20;54.90;;;;;;5078007;28;20006;-69
2021/05/13 09:37:50;;;;;;;;;;;21.80;56.20;;;;;;5070088;28;20000;-71
2021/05/13 09:40:19;;;;;;;;;;;20.60;57.80;;;;;;5075109;28;19912;-70
2021/05/13 09:42:45;;;;;;;;;;;20.20;58.10;;;;;;5077182;28;19951;-71
2021/05/13 09:45:11;;;;;;;;;;;20.00;58.30;;;;;;5076727;28;19964;-69
2021/05/13 09:47:37;;;;;;;;;;;19.80;59.40;;;;;;5074021;28;19917;-68
2021/05/13 09:50:07;;;;;;;;;;;19.70;60.50;;;;;;5076690;28;19912;-69
2021/05/13 09:52:51;;;;;;;;;;;19.70;61.40;;;;;;5082780;28;19923;-69
2021/05/13 09:55:35;;;;;;;;;;;19.20;62.40;;;;;;5076672;28;19912;-69
2021/05/13 09:58:04;;;;;;;;;;;19.40;63.10;;;;;;5077057;28;19956;-69
2021/05/13 10:00:37;;;;;;;;;;;19.40;61.40;;;;;;5076084;28;20309;-69
2021/05/13 10:03:05;;;;;;;;;;;20.80;61.10;;;;;;5073565;28;20267;-69
2021/05/13 10:05:32;;;;;;;;;;;21.50;57.10;;;;;;5078450;28;19913;-70
2021/05/13 10:07:57;;;;;;;;;;;20.90;58.00;;;;;;5077390;28;19924;-68
2021/05/13 10:10:23;;;;;;;;;;;20.20;58.50;;;;;;5086418;28;19978;-69
2021/05/13 10:12:50;;;;;;;;;;;20.80;59.10;;;;;;5077359;28;19912;-69
2021/05/13 10:15:16;;;;;;;;;;;22.20;57.20;;;;;;5075486;28;19921;-69
2021/05/13 10:17:45;;;;;;;;;;;22.90;54.10;;;;;;5072962;28;19912;-69
2021/05/13 10:20:14;;;;;;;;;;;22.10;55.20;;;;;;5074469;28;19916;-68
2021/05/13 10:22:42;;;;;;;;;;;20.80;56.60;;;;;;5075850;28;19920;-69
2021/05/13 10:25:27;;;;;;;;;;;19.10;63.20;;;;;;5076044;28;19962;-69
2021/05/13 10:28:00;;;;;;;;;;;17.80;66.30;;;;;;5074592;28;19916;-69
2021/05/13 10:30:27;;;;;;;;;;;17.00;67.70;;;;;;5077017;28;19916;-68
2021/05/13 10:33:05;;;;;;;;;;;16.30;68.60;;;;;;5068670;28;19920;-69
2021/05/13 10:35:30;;;;;;;;;;;15.50;69.50;;;;;;5073186;28;19919;-70
2021/05/13 10:38:06;;;;;;;;;;;14.80;70.60;;;;;;5068804;28;20221;-69
2021/05/13 10:43:08;;;;;;;;;;;14.20;73.40;;;;;;5071945;28;19920;-70
2021/05/13 10:45:35;;;;;;;;;;;14.20;74.30;;;;;;5071856;28;19914;-69
2021/05/13 10:48:14;;;;;;;;;;;14.30;74.30;;;;;;5052217;28;20447;-69
2021/05/13 10:50:42;;;;;;;;;;;14.20;75.90;;;;;;5070790;28;19916;-68
2021/05/13 10:53:26;;;;;;;;;;;13.90;77.50;;;;;;5075042;28;19965;-68
2021/05/13 10:56:10;;;;;;;;;;;13.70;78.70;;;;;;5074560;28;20282;-69
2021/05/13 10:58:57;;;;;;;;;;;13.80;79.30;;;;;;5073634;28;19921;-68
2021/05/13 11:01:29;;;;;;;;;;;13.90;80.80;;;;;;5072295;28;19954;-68
2021/05/13 11:04:13;;;;;;;;;;;14.40;79.30;;;;;;5075890;28;19908;-69
2021/05/13 11:06:42;;;;;;;;;;;14.50;78.80;;;;;;5072837;28;20003;-69
2021/05/13 11:09:08;;;;;;;;;;;14.10;80.20;;;;;;5074225;28;19912;-68
2021/05/13 11:11:53;;;;;;;;;;;14.40;80.90;;;;;;5074758;28;19916;-69
2021/05/13 11:14:24;;;;;;;;;;;14.50;79.50;;;;;;5076048;28;19923;-69
2021/05/13 11:16:54;;;;;;;;;;;14.50;78.10;;;;;;5074138;28;19916;-69
2021/05/13 11:19:21;;;;;;;;;;;14.60;79.60;;;;;;5073168;28;19919;-69
2021/05/13 11:22:00;;;;;;;;;;;14.80;79.60;;;;;;5072032;28;19921;-69
2021/05/13 11:24:36;;;;;;;;;;;15.20;79.20;;;;;;5070044;28;19916;-70
2021/05/13 11:27:02;;;;;;;;;;;16.60;75.40;;;;;;5071286;28;19916;-69
2021/05/13 11:29:30;;;;;;;;;;;18.10;70.60;;;;;;5074160;28;19919;-69
2021/05/13 11:31:57;;;;;;;;;;;19.30;67.00;;;;;;5074423;28;19912;-69
2021/05/13 11:34:24;;;;;;;;;;;19.10;68.30;;;;;;5073356;28;19938;-68
2021/05/13 11:36:50;;;;;;;;;;;18.30;66.90;;;;;;5076275;28;19919;-69
2021/05/13 11:39:17;;;;;;;;;;;17.80;69.70;;;;;;5074527;28;19912;-69
2021/05/13 11:41:44;;;;;;;;;;;17.00;69.40;;;;;;5072766;28;20029;-68
2021/05/13 11:44:10;;;;;;;;;;;16.50;73.00;;;;;;5072035;28;19936;-69
2021/05/13 11:46:36;;;;;;;;;;;16.80;71.00;;;;;;5070216;28;19925;-68
2021/05/13 11:49:02;;;;;;;;;;;17.10;69.50;;;;;;5075381;28;19921;-69
2021/05/13 11:51:29;;;;;;;;;;;17.80;68.60;;;;;;5073178;28;19920;-69
2021/05/13 11:53:55;;;;;;;;;;;18.70;67.80;;;;;;5075603;28;19944;-69
2021/05/13 11:56:21;;;;;;;;;;;18.90;65.50;;;;;;5071474;28;19931;-68
2021/05/13 11:58:51;;;;;;;;;;;18.80;64.00;;;;;;5074945;28;20394;-68
2021/05/13 12:01:19;;;;;;;;;;;18.80;65.10;;;;;;5074381;28;19948;-68
2021/05/13 12:03:46;;;;;;;;;;;18.70;66.10;;;;;;5066999;28;19912;-69
2021/05/13 12:06:12;;;;;;;;;;;19.30;65.70;;;;;;5057757;28;20224;-69
2021/05/13 12:08:38;;;;;;;;;;;19.80;66.00;;;;;;5073669;28;19916;-68
2021/05/13 12:11:21;;;;;;;;;;;19.80;62.70;;;;;;5074727;28;19923;-69
2021/05/13 12:13:47;;;;;;;;;;;18.90;64.20;;;;;;5070944;28;19913;-69
2021/05/13 12:16:13;;;;;;;;;;;18.00;65.60;;;;;;5073072;28;20206;-68
2021/05/13 12:18:42;;;;;;;;;;;17.40;68.00;;;;;;5053755;28;19919;-68
2021/05/13 12:21:13;;;;;;;;;;;16.60;70.80;;;;;;5073718;28;19919;-68
2021/05/13 12:23:39;;;;;;;;;;;15.80;72.80;;;;;;5059825;28;19966;-68
2021/05/13 12:26:05;;;;;;;;;;;15.20;75.10;;;;;;5073193;28;19923;-68
2021/05/13 12:28:33;;;;;;;;;;;14.80;75.80;;;;;;5074237;28;20217;-68
2021/05/13 12:30:59;;;;;;;;;;;14.60;78.50;;;;;;5073766;28;19970;-68
2021/05/13 12:33:27;;;;;;;;;;;14.50;78.60;;;;;;5070747;28;19917;-70
2021/05/13 12:35:53;;;;;;;;;;;14.50;78.30;;;;;;5073236;28;20027;-70
2021/05/13 12:38:23;;;;;;;;;;;14.40;78.60;;;;;;5075835;28;19963;-70
2021/05/13 12:40:49;;;;;;;;;;;14.10;80.10;;;;;;5078595;28;19920;-70
2021/05/13 12:43:19;;;;;;;;;;;13.60;81.00;;;;;;5074083;28;19912;-69
2021/05/13 12:45:48;;;;;;;;;;;13.10;81.20;;;;;;5080042;28;20321;-69
2021/05/13 12:48:20;;;;;;;;;;;13.00;82.10;;;;;;5076531;28;19916;-69
2021/05/13 12:50:54;;;;;;;;;;;13.00;82.40;;;;;;5073569;28;20007;-68
2021/05/13 12:53:23;;;;;;;;;;;12.80;83.80;;;;;;5059927;28;19913;-69
2021/05/13 12:55:49;;;;;;;;;;;12.70;85.50;;;;;;5073770;28;19921;-69
2021/05/13 12:58:22;;;;;;;;;;;12.40;87.10;;;;;;5072992;28;20000;-69
2021/05/13 13:01:03;;;;;;;;;;;12.20;88.40;;;;;;5078534;28;19973;-69
2021/05/13 13:03:28;;;;;;;;;;;12.00;91.50;;;;;;5077936;28;19912;-69
2021/05/13 13:06:04;;;;;;;;;;;11.90;91.10;;;;;;5077609;28;19916;-69
2021/05/13 13:08:40;;;;;;;;;;;11.60;92.40;;;;;;5084649;28;19919;-68
2021/05/13 13:11:06;;;;;;;;;;;11.30;92.90;;;;;;5073352;28;19913;-70
2021/05/13 13:13:37;;;;;;;;;;;11.00;94.70;;;;;;5073427;28;19913;-69
2021/05/13 13:16:14;;;;;;;;;;;11.10;95.10;;;;;;5076430;28;19924;-69
2021/05/13 13:18:42;;;;;;;;;;;11.10;94.80;;;;;;5076011;28;19917;-70
2021/05/13 13:21:16;;;;;;;;;;;11.20;94.20;;;;;;5076359;28;19913;-70
2021/05/13 13:23:42;;;;;;;;;;;11.40;95.70;;;;;;5076398;28;19913;-69
2021/05/13 13:26:09;;;;;;;;;;;11.60;93.90;;;;;;5075813;28;19969;-70
2021/05/13 13:28:44;;;;;;;;;;;11.60;93.30;;;;;;5060797;28;19920;-70
2021/05/13 13:31:16;;;;;;;;;;;11.60;92.70;;;;;;5078123;28;20324;-70
2021/05/13 13:33:52;;;;;;;;;;;11.60;92.00;;;;;;5076569;28;19912;-69
2021/05/13 13:36:18;;;;;;;;;;;11.60;93.50;;;;;;5073802;28;19920;-68
2021/05/13 13:38:43;;;;;;;;;;;11.70;91.80;;;;;;5065097;28;19924;-68
2021/05/13 13:41:10;;;;;;;;;;;11.90;92.20;;;;;;5080055;28;19952;-69
2021/05/13 13:43:35;;;;;;;;;;;11.90;92.50;;;;;;5074545;28;20542;-68
2021/05/13 13:46:01;;;;;;;;;;;12.20;90.80;;;;;;5078694;28;20065;-69
2021/05/13 13:48:27;;;;;;;;;;;12.30;89.40;;;;;;5072457;28;20263;-69
2021/05/13 13:50:54;;;;;;;;;;;12.30;88.80;;;;;;5072852;28;19923;-68
2021/05/13 13:53:21;;;;;;;;;;;12.30;91.50;;;;;;5074182;28;19917;-68
2021/05/13 13:55:50;;;;;;;;;;;12.50;90.80;;;;;;5057934;28;19985;-68
2021/05/13 13:58:16;;;;;;;;;;;12.80;88.40;;;;;;5072137;28;19923;-69
2021/05/13 14:00:42;;;;;;;;;;;12.90;88.20;;;;;;5073841;28;20301;-70
2021/05/13 14:03:07;;;;;;;;;;;12.80;86.40;;;;;;5070854;28;19917;-69
2021/05/13 14:05:33;;;;;;;;;;;12.80;87.40;;;;;;5051498;28;19980;-69
2021/05/13 14:07:59;;;;;;;;;;;12.70;88.60;;;;;;5069848;28;20337;-68
2021/05/13 14:10:28;;;;;;;;;;;12.70;89.70;;;;;;5072150;28;20292;-69
2021/05/13 14:12:53;;;;;;;;;;;12.70;90.10;;;;;;5059468;28;19919;-69
2021/05/13 14:15:19;;;;;;;;;;;12.60;90.80;;;;;;5073227;28;19924;-69
2021/05/13 14:17:45;;;;;;;;;;;12.50;91.80;;;;;;5070986;28;20324;-69
2021/05/13 14:20:12;;;;;;;;;;;12.40;93.00;;;;;;5046952;28;19928;-69
2021/05/13 14:22:38;;;;;;;;;;;12.20;93.60;;;;;;5060332;28;19916;-69
2021/05/13 14:25:04;;;;;;;;;;;12.20;94.30;;;;;;5057065;28;19966;-69
2021/05/13 14:27:30;;;;;;;;;;;12.20;94.70;;;;;;5057088;28;19945;-69
2021/05/13 14:29:55;;;;;;;;;;;12.20;93.80;;;;;;5061667;28;20335;-68
2021/05/13 14:32:21;;;;;;;;;;;12.10;94.20;;;;;;5071365;28;19951;-68
2021/05/13 14:34:46;;;;;;;;;;;12.20;94.20;;;;;;5073162;28;20050;-69